createdAt,value
2019-03-06T00:03:55.292Z,99814.32
2019-03-06T00:07:59.953Z,99819.63
2019-03-06T00:12:04.376Z,99830.03
2019-03-06T00:16:09.294Z,99834.72
2019-03-06T00:20:13.525Z,99824.22
2019-03-06T00:24:17.997Z,99833.39
2019-03-06T00:28:22.300Z,99834.17
2019-03-06T00:32:28.295Z,99839.75
2019-03-06T00:36:33.922Z,99840.59
2019-03-06T00:41:06.229Z,99841.97
2019-03-06T00:45:10.532Z,99838.38
2019-03-06T00:49:15.916Z,99835.67
2019-03-06T00:53:20.243Z,99836.48
2019-03-06T00:57:24.493Z,99839.48
2019-03-06T01:01:29.369Z,99845.59
2019-03-06T01:05:33.559Z,99844.68
2019-03-06T01:09:38.511Z,99848.08
2019-03-06T01:13:42.665Z,99853.84
2019-03-06T01:17:47.539Z,99856.46
2019-03-06T01:21:51.733Z,99860.82
2019-03-06T01:25:58.266Z,99864.78
2019-03-06T01:30:02.471Z,99868.27
2019-03-06T01:34:18.085Z,99864.75
2019-03-06T01:38:40.771Z,99871.30
2019-03-06T01:42:59.385Z,99872.59
2019-03-06T01:47:03.860Z,99866.90
2019-03-06T01:51:09.067Z,99864.65
2019-03-06T01:55:16.563Z,99877.73
2019-03-06T01:59:20.776Z,99864.18
2019-03-06T02:03:26.518Z,99866.86
2019-03-06T02:07:30.679Z,99871.94
2019-03-06T02:11:35.570Z,99871.97
2019-03-06T02:15:40.033Z,99873.24
2019-03-06T02:19:44.525Z,99875.89
2019-03-06T02:23:48.847Z,99876.73
2019-03-06T02:27:53.159Z,99874.92
2019-03-06T02:31:57.701Z,99878.81
2019-03-06T02:36:02.093Z,99877.00
2019-03-06T02:40:06.549Z,99881.77
2019-03-06T02:44:11.035Z,99875.59
2019-03-06T02:48:15.253Z,99876.86
2019-03-06T02:52:19.891Z,99882.03
2019-03-06T02:56:24.196Z,99876.33
2019-03-06T03:00:46.283Z,99878.87
2019-03-06T03:05:06.170Z,99881.05
2019-03-06T03:09:18.740Z,99889.30
2019-03-06T03:13:22.967Z,99892.42
2019-03-06T03:17:27.426Z,99899.00
2019-03-06T03:21:31.683Z,99896.85
2019-03-06T03:25:36.237Z,99906.88
2019-03-06T03:29:40.491Z,99907.64
2019-03-06T03:33:44.811Z,99916.87
2019-03-06T03:37:49.032Z,99926.50
2019-03-06T03:41:53.235Z,99934.39
2019-03-06T03:45:57.459Z,99936.93
2019-03-06T03:50:01.695Z,99935.44
2019-03-06T03:54:05.904Z,99942.27
2019-03-06T03:58:10.154Z,99947.66
2019-03-06T04:02:14.863Z,99955.43
2019-03-06T04:06:19.745Z,99961.09
2019-03-06T04:10:23.994Z,99965.41
2019-03-06T04:14:28.199Z,99962.28
2019-03-06T04:18:32.442Z,99974.41
2019-03-06T04:22:37.008Z,99984.78
2019-03-06T04:26:41.254Z,99976.86
2019-03-06T04:30:45.459Z,99974.20
2019-03-06T04:34:49.897Z,99965.48
2019-03-06T04:38:55.218Z,99967.70
2019-03-06T04:42:59.720Z,99975.16
2019-03-06T04:47:03.992Z,99981.69
2019-03-06T04:51:08.195Z,99975.23
2019-03-06T04:55:13.436Z,99982.25
2019-03-06T04:59:17.611Z,99994.45
2019-03-06T05:03:22.026Z,100000.50
2019-03-06T05:07:26.318Z,100012.14
2019-03-06T05:11:30.526Z,100015.55
2019-03-06T05:15:35.105Z,100013.29
2019-03-06T05:19:40.954Z,100020.13
2019-03-06T05:23:45.287Z,100014.86
2019-03-06T05:27:49.945Z,100021.43
2019-03-06T05:32:25.711Z,100011.89
2019-03-06T05:36:59.409Z,100009.63
2019-03-06T05:41:03.598Z,100012.47
2019-03-06T05:45:08.491Z,100017.26
2019-03-06T05:49:12.669Z,100011.55
2019-03-06T05:53:17.022Z,100016.38
2019-03-06T05:57:21.418Z,100023.39
2019-03-06T06:01:25.756Z,100032.89
2019-03-06T06:05:30.226Z,100035.89
2019-03-06T06:09:34.605Z,100035.41
2019-03-06T06:13:38.913Z,100029.32
2019-03-06T06:17:43.210Z,100038.59
2019-03-06T06:22:04.707Z,100045.74
2019-03-06T06:26:08.900Z,100038.11
2019-03-06T06:30:14.542Z,100043.91
2019-03-06T06:34:19.949Z,100041.94
2019-03-06T06:38:24.235Z,100038.19
2019-03-06T06:42:28.530Z,100046.28
2019-03-06T06:46:32.816Z,100043.66
2019-03-06T06:50:37.519Z,100046.28
2019-03-06T06:54:53.049Z,100050.64
2019-03-06T06:59:30.838Z,100055.83
2019-03-06T07:04:21.754Z,100061.02
2019-03-06T07:08:46.618Z,100068.51
2019-03-06T07:13:28.215Z,100065.50
2019-03-06T07:17:38.809Z,100067.03
2019-03-06T07:22:02.123Z,100071.04
2019-03-06T07:26:30.592Z,100079.88
2019-03-06T07:31:12.012Z,100077.95
2019-03-06T07:36:16.414Z,100084.30
2019-03-06T07:40:26.852Z,100088.78
2019-03-06T07:44:50.234Z,100090.09
2019-03-06T07:49:16.326Z,100096.27
2019-03-06T07:53:52.820Z,100102.55
2019-03-06T07:58:32.995Z,100081.92
2019-03-06T08:02:57.326Z,100083.17
2019-03-06T08:07:07.279Z,100080.52
2019-03-06T08:11:19.946Z,100088.59
2019-03-06T08:15:33.920Z,100080.94
2019-03-06T08:19:57.102Z,100081.05
2019-03-06T08:24:23.538Z,100076.03
2019-03-06T08:28:27.778Z,100064.88
2019-03-06T08:32:33.546Z,100062.09
2019-03-06T08:36:37.775Z,100060.87
2019-03-06T08:40:42.118Z,100054.54
2019-03-06T08:44:46.339Z,100053.84
2019-03-06T08:48:58.958Z,100048.24
2019-03-06T08:53:19.308Z,100048.82
2019-03-06T08:57:48.695Z,100058.14
2019-03-06T09:02:15.824Z,100051.20
2019-03-06T09:06:48.107Z,100054.45
2019-03-06T09:11:23.356Z,100053.34
2019-03-06T09:15:38.067Z,100046.00
2019-03-06T09:20:16.780Z,100041.23
2019-03-06T09:24:46.452Z,100038.69
2019-03-06T09:33:12.660Z,100052.05
2019-03-06T09:37:27.568Z,100046.48
2019-03-06T09:41:53.506Z,100040.96
2019-03-06T09:46:19.737Z,100033.64
2019-03-06T09:50:29.043Z,100034.70
2019-03-06T09:54:47.717Z,100034.33
2019-03-06T09:59:06.388Z,100028.31
2019-03-06T10:03:35.509Z,100013.02
2019-03-06T10:07:50.849Z,99993.94
2019-03-06T10:12:17.004Z,99981.34
2019-03-06T10:16:25.774Z,99974.86
2019-03-06T10:20:30.024Z,99975.82
2019-03-06T10:24:34.276Z,99975.88
2019-03-06T10:28:38.478Z,99977.23
2019-03-06T10:32:43.311Z,99960.20
2019-03-06T10:36:47.550Z,99965.98
2019-03-06T10:40:51.775Z,99961.66
2019-03-06T10:44:55.953Z,99950.73
2019-03-06T10:49:00.171Z,99945.94
2019-03-06T10:53:04.745Z,99941.10
2019-03-06T10:57:09.192Z,99916.58
2019-03-06T11:01:14.002Z,99916.58
2019-03-06T11:05:26.263Z,99909.99
2019-03-06T11:09:30.839Z,99897.25
2019-03-06T11:13:35.071Z,99884.02
2019-03-06T11:17:39.886Z,99873.88
2019-03-06T11:21:44.373Z,99873.88
2019-03-06T11:25:49.792Z,99866.86
2019-03-06T11:29:54.003Z,99857.17
2019-03-06T11:33:58.385Z,99845.33
2019-03-06T11:38:02.729Z,99851.47
2019-03-06T11:42:07.101Z,99840.42
2019-03-06T11:46:11.716Z,99829.00
2019-03-06T11:50:16.637Z,99828.95
2019-03-06T11:54:20.852Z,99823.20
2019-03-06T11:58:25.075Z,99809.09
2019-03-06T12:02:29.269Z,99788.27
2019-03-06T12:06:33.499Z,99788.27
2019-03-06T12:10:38.175Z,99783.44
2019-03-06T12:14:42.589Z,99767.58
2019-03-06T12:18:47.642Z,99768.91
2019-03-06T12:22:52.046Z,99737.14
2019-03-06T12:26:56.880Z,99737.14
2019-03-06T12:31:01.683Z,99741.47
2019-03-06T12:35:06.573Z,99724.30
2019-03-06T12:39:11.574Z,99713.67
2019-03-06T12:43:16.258Z,99705.25
2019-03-06T12:47:20.654Z,99693.77
2019-03-06T12:51:26.547Z,99686.69
2019-03-06T12:55:32.044Z,99682.27
2019-03-06T12:59:36.260Z,99658.35
2019-03-06T13:03:41.074Z,99658.24
2019-03-06T13:07:45.316Z,99645.84
2019-03-06T13:11:50.590Z,99633.05
2019-03-06T13:15:55.178Z,99625.03
2019-03-06T13:20:00.344Z,99631.14
2019-03-06T13:24:05.338Z,99624.95
2019-03-06T13:28:10.307Z,99614.38
2019-03-06T13:32:15.710Z,99608.59
2019-03-06T13:36:20.388Z,99606.31
2019-03-06T13:40:26.646Z,99582.84
2019-03-06T13:44:31.989Z,99582.84
2019-03-06T13:48:36.337Z,99572.70
2019-03-06T13:52:40.788Z,99567.78
2019-03-06T13:56:45.336Z,99549.77
2019-03-06T14:00:49.664Z,99543.23
2019-03-06T14:04:54.359Z,99537.56
2019-03-06T14:08:58.653Z,99530.08
2019-03-06T14:13:03.793Z,99531.42
2019-03-06T14:17:08.497Z,99524.73
2019-03-06T14:21:15.724Z,99529.08
2019-03-06T14:25:22.860Z,99531.24
2019-03-06T14:29:27.690Z,99525.06
2019-03-06T14:33:49.649Z,99510.52
2019-03-06T14:37:54.090Z,99500.41
2019-03-06T14:42:00.751Z,99502.66
2019-03-06T14:46:05.176Z,99501.84
2019-03-06T14:50:10.525Z,99480.75
2019-03-06T14:54:14.690Z,99485.60
2019-03-06T14:58:19.491Z,99480.27
2019-03-06T15:02:25.129Z,99467.87
2019-03-06T15:06:30.617Z,99463.44
2019-03-06T15:10:42.747Z,99459.48
2019-03-06T15:14:41.601Z,99450.70
2019-03-06T15:18:48.178Z,99449.87
2019-03-06T15:22:53.285Z,99440.24
2019-03-06T15:26:58.692Z,99436.31
2019-03-06T15:31:03.122Z,99441.19
2019-03-06T15:35:09.389Z,99424.06
2019-03-06T15:39:42.693Z,99420.09
2019-03-06T15:43:42.155Z,99408.64
2019-03-06T15:47:47.196Z,99405.98
2019-03-06T15:51:51.473Z,99396.73
2019-03-06T15:55:56.226Z,99390.13
2019-03-06T16:00:01.058Z,99381.79
2019-03-06T16:04:07.032Z,99384.86
2019-03-06T16:08:13.272Z,99369.55
2019-03-06T16:12:17.725Z,99362.55
2019-03-06T16:16:22.059Z,99363.09
2019-03-06T16:20:26.665Z,99356.58
2019-03-06T16:24:31.101Z,99344.34
2019-03-06T16:28:35.679Z,99337.84
2019-03-06T16:32:41.763Z,99333.48
2019-03-06T16:36:45.955Z,99328.23
2019-03-06T16:40:50.166Z,99317.70
2019-03-06T16:44:54.415Z,99315.09
2019-03-06T16:48:59.027Z,99307.61
2019-03-06T16:53:03.273Z,99306.41
2019-03-06T16:57:07.661Z,99309.06
2019-03-06T17:01:12.025Z,99293.70
2019-03-06T17:05:19.320Z,99289.78
2019-03-06T17:09:23.713Z,99273.59
2019-03-06T17:13:28.179Z,99271.45
2019-03-06T17:17:32.783Z,99280.70
2019-03-06T17:21:37.008Z,99258.77
2019-03-06T17:25:41.231Z,99258.77
2019-03-06T17:29:45.464Z,99267.58
2019-03-06T17:33:49.893Z,99269.39
2019-03-06T17:37:54.586Z,99261.08
2019-03-06T17:41:58.897Z,99258.91
2019-03-06T17:46:03.907Z,99255.45
2019-03-06T17:50:08.694Z,99244.45
2019-03-06T17:54:13.134Z,99241.02
2019-03-06T17:58:17.711Z,99241.02
2019-03-06T18:02:21.986Z,99233.59
2019-03-06T18:06:26.898Z,99236.70
2019-03-06T18:10:31.300Z,99222.22
2019-03-06T18:14:36.162Z,99210.87
2019-03-06T18:18:40.598Z,99210.87
2019-03-06T18:22:45.503Z,99209.56
2019-03-06T18:26:50.202Z,99203.47
2019-03-06T18:30:54.980Z,99192.56
2019-03-06T18:34:59.196Z,99189.53
2019-03-06T18:39:05.555Z,99181.20
2019-03-06T18:43:12.188Z,99175.57
2019-03-06T18:47:17.108Z,99160.67
2019-03-06T18:51:21.903Z,99146.21
2019-03-06T18:55:28.444Z,99158.91
2019-03-06T18:59:33.475Z,99137.94
2019-03-06T19:07:54.636Z,99129.15
2019-03-06T19:11:58.842Z,99123.53
2019-03-06T19:16:04.086Z,99102.94
2019-03-06T19:20:08.931Z,99110.91
2019-03-06T19:24:13.266Z,99103.05
2019-03-06T19:28:23.969Z,99101.28
2019-03-06T19:32:28.213Z,99094.72
2019-03-06T19:36:33.420Z,99083.36
2019-03-06T19:40:37.728Z,99096.53
2019-03-06T19:44:43.736Z,99084.72
2019-03-06T19:48:49.652Z,99098.80
2019-03-06T19:52:53.939Z,99085.23
2019-03-06T19:56:59.024Z,99076.48
2019-03-06T20:01:03.238Z,99076.48
2019-03-06T20:05:07.961Z,99073.84
2019-03-06T20:09:27.950Z,99077.80
2019-03-06T20:13:32.952Z,99054.48
2019-03-06T20:17:37.202Z,99061.55
2019-03-06T20:25:51.209Z,99052.34
2019-03-06T20:29:55.519Z,99045.33
2019-03-06T20:33:59.858Z,99043.55
2019-03-06T20:38:04.597Z,99032.55
2019-03-06T20:42:09.911Z,99032.55
2019-03-06T20:46:14.627Z,99012.38
2019-03-06T20:50:19.077Z,99007.14
2019-03-06T20:54:23.463Z,99001.46
2019-03-06T20:58:27.753Z,98999.75
2019-03-06T21:02:32.643Z,99003.27
2019-03-06T21:06:38.957Z,99003.28
2019-03-06T21:10:43.183Z,98989.33
2019-03-06T21:14:47.424Z,98980.11
2019-03-06T21:18:51.669Z,98973.55
2019-03-06T21:22:55.919Z,98973.11
2019-03-06T21:27:00.475Z,98969.59
2019-03-06T21:31:04.708Z,98958.22
2019-03-06T21:35:09.313Z,98961.30
2019-03-06T21:39:22.760Z,98940.31
2019-03-06T21:43:27.340Z,98953.95
2019-03-06T21:47:31.735Z,98952.66
2019-03-06T21:51:36.159Z,98943.92
2019-03-06T21:55:40.412Z,98943.92
2019-03-06T21:59:44.740Z,98950.06
2019-03-06T22:03:48.975Z,98939.56
2019-03-06T22:07:53.359Z,98945.73
2019-03-06T22:11:57.841Z,98931.73
2019-03-06T22:16:02.720Z,98931.31
2019-03-06T22:20:07.921Z,98922.12
2019-03-06T22:24:12.166Z,98930.09
2019-03-06T22:28:16.442Z,98922.20
2019-03-06T22:32:20.759Z,98920.94
2019-03-06T22:36:25.031Z,98915.70
2019-03-06T22:40:29.257Z,98913.56
2019-03-06T22:44:33.843Z,98912.31
2019-03-06T22:48:38.098Z,98900.50
2019-03-06T22:52:42.325Z,98888.70
2019-03-06T22:56:46.746Z,98882.60
2019-03-06T23:00:56.454Z,98876.48
2019-03-06T23:05:01.244Z,98877.80
2019-03-06T23:09:09.339Z,98872.57
2019-03-06T23:13:13.598Z,98868.22
2019-03-06T23:17:18.221Z,98857.29
2019-03-06T23:21:22.448Z,98870.95
2019-03-06T23:25:26.635Z,98858.73
2019-03-06T23:29:30.994Z,98852.19
2019-03-06T23:33:35.314Z,98863.61
2019-03-06T23:37:39.626Z,98853.09
2019-03-06T23:41:43.932Z,98852.77
2019-03-06T23:45:49.975Z,98848.47
2019-03-06T23:49:54.334Z,98841.50
2019-03-06T23:53:58.599Z,98826.69
2019-03-06T23:58:02.898Z,98829.38
